Stations météo

réclame
Mon MeteoGroup
Bari, Italie (16271): Température de l'air & dewpoint: 20.09.2018 09:00:00 - 26.09.2018 09:00:00 (CEST)Bari, Italie (16271): Vitesse du vent: 20.09.2018 09:00:00 - 26.09.2018 09:00:00 (CEST)Bari, Italie (16271): Direction du vent: 20.09.2018 09:00:00 - 26.09.2018 09:00:00 (CEST)Bari, Italie (16271): reduced air pressure: 20.09.2018 09:00:00 - 26.09.2018 09:00:00 (CEST)Bari, Italie (16271): Quantités de précipitations: 20.09.2018 09:00:00 - 26.09.2018 09:00:00 (CEST)
Date & Time tt [°C] td [°C] ff [km/h] ff [knt] dd ppp [hPa] rr [mm]
26.09.2018 09:00:00 - - - - - - -
26.09.2018 08:00:00 17,6 7,8 34 18 NW 1028,8 0,0
26.09.2018 07:00:00 17,2 7,5 37 20 NW 1028,6 -
26.09.2018 06:00:00 17,4 8,2 37 20 NW 1028,3 -
26.09.2018 05:00:00 17,5 8,3 37 20 NW 1028,5 -
26.09.2018 04:00:00 17,6 6,7 35 19 NW 1028,5 -
26.09.2018 03:00:00 18,0 6,1 41 22 NW 1028,7 -
26.09.2018 02:00:00 18,2 4,3 39 21 NW 1028,7 0,0
26.09.2018 01:00:00 18,5 3,8 39 21 NW 1028,5 -
26.09.2018 00:00:00 18,7 4,0 44 24 NW 1028,6 -
25.09.2018 23:00:00 19,4 5,7 50 27 NW 1028,3 -
25.09.2018 22:00:00 19,7 5,3 39 21 NW 1027,7 -
25.09.2018 21:00:00 19,9 4,3 41 22 NW 1027,3 -
25.09.2018 20:00:00 19,7 8,3 35 19 NW 1027,1 0,0
25.09.2018 19:00:00 20,1 9,6 41 22 NW 1026,5 -
25.09.2018 18:00:00 20,4 4,4 44 24 NW 1026,1 -
25.09.2018 17:00:00 20,5 4,4 42 23 E 1026,3 -
25.09.2018 16:00:00 20,6 4,1 37 20 NW 1026,4 -
25.09.2018 15:00:00 20,8 2,5 41 22 NW 1026,6 -
25.09.2018 14:00:00 20,8 3,9 35 19 NW 1026,8 0,0
25.09.2018 13:00:00 20,6 7,5 35 19 NW 1027,1 -
25.09.2018 12:00:00 20,7 3,8 35 19 NW 1027,3 -
25.09.2018 11:00:00 20,5 6,4 34 18 NW 1026,9 -
25.09.2018 10:00:00 20,4 3,9 37 20 NW 1026,3 -
25.09.2018 09:00:00 20,0 5,9 37 20 NW 1025,6 -
25.09.2018 08:00:00 20,0 5,2 39 21 WNW 1025,1 0,0
25.09.2018 07:00:00 19,7 6,4 37 20 WNW 1024,6 -
25.09.2018 06:00:00 19,9 10,3 41 22 WNW 1024,1 -
25.09.2018 05:00:00 20,0 10,1 35 19 S 1023,6 -
25.09.2018 04:00:00 20,0 12,0 34 18 S 1023,2 -
25.09.2018 03:00:00 20,4 12,8 37 20 S 1023,1 -
25.09.2018 02:00:00 21,1 13,7 34 18 S 1022,9 0,0
25.09.2018 01:00:00 21,4 14,9 35 19 WNW 1022,1 -
25.09.2018 00:00:00 21,8 15,3 37 20 WNW 1022,0 -
24.09.2018 23:00:00 22,1 15,8 39 21 WNW 1021,3 -
24.09.2018 22:00:00 22,5 16,5 37 20 WNW 1020,1 -
24.09.2018 21:00:00 23,4 17,1 28 15 WNW 1018,9 -
24.09.2018 20:00:00 23,3 17,9 29 16 WNW 1017,6 0,0
24.09.2018 19:00:00 23,7 18,9 44 24 WNW 1015,8 -
24.09.2018 18:00:00 27,1 20,4 31 17 NW 1014,6 -
24.09.2018 17:00:00 27,9 21,1 22 12 WNW 1014,4 -
24.09.2018 16:00:00 28,1 19,6 26 14 WNW 1013,9 -
24.09.2018 15:00:00 29,0 17,8 26 14 NW 1013,9 -
24.09.2018 14:00:00 29,0 19,6 16 9 NW 1014,0 0,0
24.09.2018 13:00:00 29,2 19,8 11 6 NW 1014,3 -
24.09.2018 12:00:00 29,3 19,6 9 5 NW 1014,2 -
24.09.2018 11:00:00 28,3 18,3 11 6 NW 1014,3 -
24.09.2018 10:00:00 28,0 18,1 5 3 W 1014,1 -
24.09.2018 09:00:00 25,9 17,2 9 5 S 1013,8 -
24.09.2018 08:00:00 23,3 17,2 13 7 S 1013,7 0,0
24.09.2018 07:00:00 22,8 17,0 5 3 S 1014,0 -
24.09.2018 06:00:00 23,3 17,7 11 6 S 1014,1 -
24.09.2018 05:00:00 23,4 19,5 16 9 S 1013,9 -
24.09.2018 04:00:00 23,9 19,1 13 7 S 1014,3 -
24.09.2018 03:00:00 24,4 18,7 15 8 S 1014,9 -
24.09.2018 02:00:00 24,6 16,8 15 8 S 1015,6 0,0
24.09.2018 01:00:00 25,2 13,3 15 8 S 1016,3 -
24.09.2018 00:00:00 25,4 15,9 13 7 S 1016,6 -
23.09.2018 23:00:00 25,8 15,4 15 8 S 1017,1 -
23.09.2018 22:00:00 25,9 16,4 15 8 S 1017,3 -
23.09.2018 21:00:00 26,4 17,9 13 7 S 1017,7 -
23.09.2018 20:00:00 26,3 19,6 9 5 S 1017,6 0,0
23.09.2018 19:00:00 26,1 21,0 21 11 W 1017,6 -
23.09.2018 18:00:00 26,3 21,9 24 13 S 1017,7 -
23.09.2018 17:00:00 26,6 22,4 28 15 W 1018,0 -
23.09.2018 16:00:00 26,9 19,7 28 15 W 1018,2 -
23.09.2018 15:00:00 26,9 22,5 28 15 W 1018,7 -
23.09.2018 14:00:00 27,3 20,8 24 13 W 1019,3 0,0
23.09.2018 13:00:00 27,8 20,3 21 11 W 1019,9 -
23.09.2018 12:00:00 28,2 20,4 15 8 NW 1020,2 -
23.09.2018 11:00:00 27,6 17,4 5 3 S 1020,1 -
23.09.2018 10:00:00 27,1 16,3 4 2 S 1020,0 -
23.09.2018 09:00:00 23,6 15,6 5 3 S 1019,8 -
23.09.2018 08:00:00 21,5 14,1 9 5 S 1019,2 0,0
23.09.2018 07:00:00 21,1 13,7 8 4 S 1018,9 -
23.09.2018 06:00:00 21,7 13,8 8 4 S 1018,7 -
23.09.2018 05:00:00 21,9 14,5 9 5 S 1018,6 -
23.09.2018 04:00:00 22,6 14,6 8 4 S 1018,6 -
23.09.2018 03:00:00 23,0 16,0 2 1 S 1019,0 -
23.09.2018 02:00:00 23,6 16,6 8 4 S 1019,0 0,0
23.09.2018 01:00:00 23,7 17,1 11 6 S 1019,0 -
23.09.2018 00:00:00 23,6 16,8 11 6 S 1018,9 -
22.09.2018 23:00:00 24,3 16,7 11 6 S 1018,8 -
22.09.2018 22:00:00 24,9 17,6 9 5 S 1019,0 -
22.09.2018 21:00:00 25,3 18,7 8 4 S 1018,6 -
22.09.2018 20:00:00 25,5 21,3 8 4 W 1018,2 0,0
22.09.2018 19:00:00 25,7 20,9 18 10 W 1017,7 -
22.09.2018 18:00:00 26,1 21,0 22 12 W 1017,4 -
22.09.2018 17:00:00 26,2 19,8 21 11 W 1017,5 -
22.09.2018 16:00:00 26,3 19,6 21 11 W 1017,6 -
22.09.2018 15:00:00 26,7 20,0 21 11 W 1017,8 -
22.09.2018 14:00:00 27,1 20,4 22 12 W 1018,2 0,0
22.09.2018 13:00:00 27,1 19,9 18 10 W 1018,6 -
22.09.2018 12:00:00 27,1 20,6 16 9 W 1018,4 -
22.09.2018 11:00:00 27,1 19,9 13 7 NW 1018,5 -
22.09.2018 10:00:00 25,5 21,5 8 4 S 1018,2 -
22.09.2018 09:00:00 22,8 18,3 9 5 S 1017,9 -
22.09.2018 08:00:00 20,9 18,4 11 6 S 1017,5 0,0
22.09.2018 07:00:00 20,6 18,3 11 6 S 1017,1 -
22.09.2018 06:00:00 20,9 18,0 8 4 S 1016,9 -
22.09.2018 05:00:00 21,4 17,1 5 3 S 1016,8 -
22.09.2018 04:00:00 21,9 17,4 4 2 S 1016,7 -
22.09.2018 03:00:00 22,2 17,7 2 1 S 1016,9 -
22.09.2018 02:00:00 22,3 17,8 4 2 S 1017,2 0,0
22.09.2018 01:00:00 23,0 19,3 2 1 S 1017,0 -
22.09.2018 00:00:00 23,6 18,4 5 3 S 1017,1 -
21.09.2018 23:00:00 23,8 19,0 8 4 S 1016,9 -
21.09.2018 22:00:00 24,1 19,3 11 6 S 1016,7 -
21.09.2018 21:00:00 24,7 19,9 8 4 W 1016,8 -
21.09.2018 20:00:00 25,0 20,2 11 6 W 1016,3 0,0
21.09.2018 19:00:00 25,2 20,2 22 12 W 1015,9 -
21.09.2018 18:00:00 25,3 20,3 24 13 W 1015,9 -
21.09.2018 17:00:00 26,1 21,0 22 12 NW 1016,1 -
21.09.2018 16:00:00 26,9 20,7 18 10 NW 1016,0 -
21.09.2018 15:00:00 27,2 21,0 21 11 NW 1016,3 -
21.09.2018 14:00:00 26,7 22,5 21 11 NW 1016,8 0,0
21.09.2018 13:00:00 26,7 22,5 18 10 NW 1017,3 -
21.09.2018 12:00:00 26,7 20,5 13 7 NW 1017,5 -
21.09.2018 11:00:00 26,8 20,8 8 4 NW 1017,6 -
21.09.2018 10:00:00 25,6 20,6 4 2 S 1017,4 -
21.09.2018 09:00:00 23,6 20,5 5 3 S 1017,0 -
21.09.2018 08:00:00 21,9 19,4 8 4 S 1016,9 0,0
21.09.2018 07:00:00 21,4 18,7 8 4 W 1016,5 -
21.09.2018 06:00:00 21,6 18,9 4 2 S 1016,6 -
21.09.2018 05:00:00 21,8 18,9 5 3 S 1016,7 -
21.09.2018 04:00:00 22,0 17,5 4 2 W 1016,8 -
21.09.2018 03:00:00 22,2 17,7 5 3 W 1017,0 -
21.09.2018 02:00:00 22,7 18,2 8 4 W 1017,1 0,0
21.09.2018 01:00:00 23,2 18,5 8 4 W 1017,2 -
21.09.2018 00:00:00 24,1 20,4 8 4 W 1017,4 -
20.09.2018 23:00:00 24,8 20,8 9 5 NW 1017,5 -
20.09.2018 22:00:00 24,8 20,8 8 4 NW 1017,6 -
20.09.2018 21:00:00 24,9 20,9 9 5 NW 1017,7 -
20.09.2018 20:00:00 25,0 20,2 8 4 NW 1017,5 0,0
20.09.2018 19:00:00 25,3 20,5 11 6 NW 1017,4 -
20.09.2018 18:00:00 25,7 20,7 11 6 NW 1017,5 -
20.09.2018 17:00:00 26,1 21,9 15 8 NW 1017,4 -
20.09.2018 16:00:00 27,2 20,2 16 9 NW 1017,6 -
20.09.2018 15:00:00 27,3 22,9 18 10 NW 1018,1 -
20.09.2018 14:00:00 26,3 21,2 16 9 NW 1018,3 0,0
20.09.2018 13:00:00 25,4 20,4 15 8 NW 1019,1 -
20.09.2018 12:00:00 25,0 20,0 13 7 NW 1019,2 -
20.09.2018 11:00:00 24,5 19,7 15 8 NW 1019,6 -
20.09.2018 10:00:00 24,4 19,6 9 5 NW 1019,2 -
20.09.2018 09:00:00 24,2 20,5 5 3 NW 1019,0 -

tt = Température de l'air
td = dewpoint
ff = Vitesse du vent
dd = Direction du vent
ppp = reduced air pressure
rr = Quantités de précipitations

stations d'obs. à proximité